Flight Track Log - Related Links

Times and Time Zones

All times are in EDT time to prevent confusion due to time zone crossing. See the RPA3242 flight status page for this flight to view local times or setup timezone preferences in your user account.

Time Position Orientation Groundspeed Altitude Reporting Facility
EDT Latitude Longitude Course Direction KTS MPH feet Rate Location/Type
Thu 06:22:31 PM 42.2314 -83.3342 43° Northeast 141 162 1,200  Level Cleveland Center
Thu 06:23:02 PM 42.2464 -83.3153 43° Northeast 155 178 2,100 1,630 Climbing Cleveland Center
Thu 06:24:03 PM 42.2833 -83.2550 50° Northeast 240 276 3,700 2,121 Climbing Cleveland Center
Thu 06:24:58 PM 42.3206 -83.1781 57° Northeast 284 327 6,200 2,213 Climbing Cleveland Center
Thu 06:26:05 PM 42.2853 -83.0672 113° Southeast 302 348 8,200 1,880 Climbing Cleveland Center
Thu 06:26:21 PM 42.2672 -83.0383 130° Southeast 308 354 8,800 2,368 Climbing Cleveland Center
Thu 06:27:21 PM 42.2256 -82.9358 119° Southeast 337 388 11,200 2,250 Climbing Cleveland Center
Thu 06:28:21 PM 42.2031 -82.8117 104° East 343 395 13,300 2,300 Climbing Cleveland Center
Thu 06:29:21 PM 42.2119 -82.6744 85° East 343 395 15,800 2,400 Climbing Cleveland Center
Thu 06:30:21 PM 42.2186 -82.5289 86° East 363 418 18,100 2,050 Climbing Cleveland Center
Thu 06:31:21 PM 42.2169 -82.3803 91° East 378 435 19,900 1,950 Climbing Cleveland Center
Thu 06:32:21 PM 42.2067 -82.2231 95° East 399 459 22,000 1,900 Climbing Cleveland Center
Thu 06:33:21 PM 42.1983 -82.0631 94° East 421 484 23,700 1,550 Climbing Cleveland Center
Thu 06:34:21 PM 42.1586 -81.9108 109° East 431 496 25,100 1,500 Climbing Cleveland Center
Thu 06:35:21 PM 42.0764 -81.8056 136° Southeast 442 509 26,700 1,450 Climbing Cleveland Center
Thu 06:36:21 PM 41.9775 -81.6919 139° Southeast 449 517 28,000 1,250 Climbing Cleveland Center
Thu 06:37:21 PM 41.8806 -81.5817 140° Southeast 463 533 29,200 1,150 Climbing Cleveland Center
Thu 06:38:21 PM 41.7814 -81.4631 138° Southeast 468 539 30,300 900 Climbing Cleveland Center
Thu 06:39:21 PM 41.6803 -81.3506 140° Southeast 468 539 31,000 550 Climbing Cleveland Center
Thu 06:40:21 PM 41.5706 -81.2269 140° Southeast 473 544 31,400 500 Climbing Cleveland Center
Thu 06:41:21 PM 41.4753 -81.1069 137° Southeast 473 544 32,000 650 Climbing Cleveland Center
Thu 06:42:21 PM 41.3861 -80.9817 133° Southeast 468 539 32,700 500 Climbing Cleveland Center
Thu 06:43:21 PM 41.2967 -80.8622 135° Southeast 462 532 33,000 150 Climbing Cleveland Center
Thu 06:44:21 PM 41.2094 -80.7378 133° Southeast 462 532 33,000  Level Cleveland Center
Thu 06:45:21 PM 41.1303 -80.6272 134° Southeast 457 526 33,000  Level Cleveland Center
Thu 06:46:21 PM 41.0428 -80.5061 134° Southeast 457 526 33,000  Level Cleveland Center
Thu 06:47:21 PM 40.9531 -80.3853 134° Southeast 457 526 33,000  Level Cleveland Center
Thu 06:48:21 PM 40.8653 -80.2647 134° Southeast 457 526 33,000  Level Cleveland Center
Thu 06:49:21 PM 40.7917 -80.1250 125° Southeast 462 532 33,000  Level Cleveland Center
Thu 06:50:21 PM 40.7367 -79.9667 115° Southeast 462 532 33,000  Level Cleveland Center
Thu 06:51:21 PM 40.6794 -79.8083 115° Southeast 467 537 33,000  Level Cleveland Center
Thu 06:52:21 PM 40.6242 -79.6531 115° Southeast 467 537 33,000  Level Cleveland Center
Thu 06:53:21 PM 40.5644 -79.5008 117° Southeast 467 537 33,000  Level Cleveland Center
Thu 06:54:21 PM 40.5189 -79.3239 109° East 462 532 33,000  Level Cleveland Center
Thu 06:55:21 PM 40.4961 -79.1714 101° East 462 532 33,000  Level Cleveland Center
Thu 06:56:21 PM 40.4711 -79.0000 101° East 467 537 33,000  Level Cleveland Center
Thu 06:57:21 PM 40.4433 -78.8125 101° East 475 547 33,000  Level Cleveland Center
Thu 06:58:21 PM 40.4175 -78.6414 101° East 475 547 33,000 -850 Level Cleveland Center
Thu 06:59:21 PM 40.3917 -78.4758 102° East 475 547 31,300 -1,909 Descending Cleveland Center
Thu 07:01:17 PM 40.3444 -78.1681 101° East 487 560 27,400 -2,102 Descending New York Center
Thu 07:02:18 PM 40.3142 -77.9822 102° East 492 566 25,100 -1,613 Descending New York Center
Thu 07:03:16 PM 40.2942 -77.7978 98° East 487 560 24,200 -1,008 Descending New York Center
Thu 07:04:17 PM 40.2767 -77.6328 98° East 476 548 23,100 -1,091 Descending New York Center
Thu 07:05:17 PM 40.2569 -77.4703 99° East 463 533 22,000 -1,091 Descending New York Center
Thu 07:06:18 PM 40.2408 -77.3083 97° East 452 520 20,900 -1,033 Descending New York Center
Thu 07:07:19 PM 40.2217 -77.1650 100° East 446 513 19,900 -1,160 Descending New York Center
Thu 07:08:17 PM 40.2039 -76.9894 97° East 446 513 18,600 -1,119 Descending New York Center
Thu 07:09:17 PM 40.1861 -76.8519 100° East 439 505 17,700 -1,041 Descending New York Center
Thu 07:10:18 PM 40.1686 -76.7008 99° East 428 493 16,500 -1,140 Descending New York Center
Thu 07:11:18 PM 40.1514 -76.5472 98° East 423 487 15,400 -1,160 Descending New York Center
Thu 07:12:17 PM 40.1319 -76.3856 99° East 413 475 14,200 -1,240 Descending New York Center
Thu 07:13:19 PM 40.1194 -76.2569 97° East 408 470 12,900 -1,462 Descending New York Center
Thu 07:14:16 PM 40.1072 -76.1119 96° East 385 443 11,300 -1,361 Descending New York Center
Thu 07:15:18 PM 40.0972 -76.0081 97° East 337 388 10,200 -1,180 Descending New York Center
Thu 07:16:18 PM 40.0900 -75.8908 95° East 306 352 8,900 -1,190 Descending New York Center
Thu 07:17:19 PM 40.0836 -75.7928 95° East 295 339 7,800 -958 Descending New York Center
Thu 07:18:17 PM 40.0778 -75.6839 94° East 285 328 7,000 -403 Descending New York Center
Thu 07:19:18 PM 40.0853 -75.6031 83° East 258 297 7,000 -198 Level New York Center
Thu 07:20:18 PM 40.0978 -75.5061 80° East 251 289 6,600 -504 Descending New York Center
Thu 07:21:17 PM 40.0925 -75.4244 95° East 251 289 6,000 -300 Descending New York Center
Thu 07:22:18 PM 40.0650 -75.3303 111° Southeast 251 289 6,000  Level New York Center
Thu 07:23:10 PM 40.0500 -75.2500 104° East 259 298 6,000  Level Philadelphia TRACON
Thu 07:24:10 PM 40.0167 -75.1667 118° Southeast 255 293 6,000 -50 Level Philadelphia TRACON
Thu 07:25:10 PM 40.0000 -75.0833 105° East 224 258 5,900 -694 Descending Philadelphia TRACON
Thu 07:26:11 PM 40.0000 -75.0167 90° East 215 247 4,600 -942 Descending Philadelphia TRACON
Thu 07:27:11 PM 40.0000 -74.9500 90° East 200 230 4,000 -238 Descending Philadelphia TRACON
Thu 07:28:17 PM 39.9333 -74.9333 169° South 183 211 4,100 -190 Climbing Philadelphia TRACON
Thu 07:29:17 PM 39.9167 -74.9833 247° West 160 184 3,600 -700 Descending Philadelphia TRACON
Thu 07:30:17 PM 39.9167 -75.0500 270° West 163 188 2,700 -850 Descending Philadelphia TRACON
Thu 07:31:17 PM 39.9000 -75.1000 247° West 163 188 1,900 -850 Descending Philadelphia TRACON
Thu 07:32:17 PM 39.8833 -75.1667 252° West 151 174 1,000 -750 Descending Philadelphia TRACON
Thu 07:33:17 PM 39.8833 -75.2000 270° West 124 143 400 -600 Descending Philadelphia TRACON
Thu 07:35:00 PM 39.8667 -75.2333 247° West  Level FlightAware Approximate

Login

Don't have an account? Register now (free) for customized features, flight alerts, and more!